createdAt,value
2018-01-27T00:00:33.710Z,4.80
2018-01-27T00:01:37.032Z,4.70
2018-01-27T00:02:39.548Z,4.60
2018-01-27T00:03:42.833Z,4.60
2018-01-27T00:04:46.121Z,4.60
2018-01-27T00:05:49.449Z,4.50
2018-01-27T00:06:51.984Z,4.50
2018-01-27T00:07:54.509Z,4.50
2018-01-27T00:08:57.038Z,4.50
2018-01-27T00:09:59.576Z,4.50
2018-01-27T00:11:02.884Z,4.50
2018-01-27T00:12:05.397Z,4.50
2018-01-27T00:13:07.924Z,4.50
2018-01-27T00:14:10.447Z,4.50
2018-01-27T00:15:13.733Z,4.40
2018-01-27T00:16:17.065Z,4.40
2018-01-27T00:17:19.589Z,4.40
2018-01-27T00:18:22.905Z,4.40
2018-01-27T00:19:25.484Z,4.40
2018-01-27T00:20:28.769Z,4.40
2018-01-27T00:21:31.333Z,4.40
2018-01-27T00:22:45.809Z,4.30
2018-01-27T00:23:48.354Z,4.40
2018-01-27T00:24:50.911Z,4.30
2018-01-27T00:25:53.437Z,4.30
2018-01-27T00:26:55.984Z,4.20
2018-01-27T00:27:58.510Z,4.20
2018-01-27T00:29:01.029Z,4.20
2018-01-27T00:30:04.326Z,4.10
2018-01-27T00:31:06.892Z,4.10
2018-01-27T00:32:09.416Z,4.20
2018-01-27T00:33:11.924Z,4.10
2018-01-27T00:34:14.433Z,4.10
2018-01-27T00:35:16.956Z,4.10
2018-01-27T00:36:19.516Z,4.00
2018-01-27T00:37:22.079Z,4.00
2018-01-27T00:38:25.360Z,4.10
2018-01-27T00:39:28.790Z,4.10
2018-01-27T00:40:31.304Z,4.10
2018-01-27T00:41:34.643Z,4.10
2018-01-27T00:42:37.161Z,4.00
2018-01-27T00:43:40.444Z,4.00
2018-01-27T00:44:43.729Z,4.00
2018-01-27T00:45:47.006Z,4.00
2018-01-27T00:46:50.417Z,4.00
2018-01-27T00:47:52.937Z,4.00
2018-01-27T00:48:55.451Z,4.10
2018-01-27T00:49:57.974Z,4.20
2018-01-27T00:51:00.580Z,4.30
2018-01-27T00:52:03.162Z,4.30
2018-01-27T00:53:05.694Z,4.40
2018-01-27T00:54:08.984Z,4.30
2018-01-27T00:55:12.264Z,4.30
2018-01-27T00:56:15.548Z,4.40
2018-01-27T00:57:18.867Z,4.50
2018-01-27T00:58:22.076Z,4.50
2018-01-27T00:59:24.822Z,4.50
2018-01-27T01:00:27.349Z,4.60
2018-01-27T01:01:30.736Z,4.60
2018-01-27T01:02:34.050Z,4.60
2018-01-27T01:03:36.568Z,4.60
2018-01-27T01:04:39.093Z,4.60
2018-01-27T01:05:41.604Z,4.60
2018-01-27T01:06:44.925Z,4.60
2018-01-27T01:07:47.444Z,4.60
2018-01-27T01:08:49.973Z,4.60
2018-01-27T01:09:52.495Z,4.60
2018-01-27T01:10:55.784Z,4.70
2018-01-27T01:11:59.109Z,4.70
2018-01-27T01:13:01.639Z,4.70
2018-01-27T01:14:04.197Z,4.80
2018-01-27T01:15:07.476Z,4.90
2018-01-27T01:16:10.768Z,4.90
2018-01-27T01:17:14.061Z,4.90
2018-01-27T01:18:16.584Z,4.90
2018-01-27T01:19:19.124Z,4.90
2018-01-27T01:20:21.771Z,4.90
2018-01-27T01:21:24.290Z,4.90
2018-01-27T01:22:26.804Z,4.90
2018-01-27T01:23:29.378Z,5.00
2018-01-27T01:24:31.933Z,5.00
2018-01-27T01:25:34.480Z,5.10
2018-01-27T01:26:37.761Z,5.20
2018-01-27T01:27:41.049Z,5.10
2018-01-27T01:28:44.334Z,5.10
2018-01-27T01:29:47.655Z,5.10
2018-01-27T01:30:50.177Z,5.10
2018-01-27T01:31:53.463Z,5.10
2018-01-27T01:32:56.754Z,5.10
2018-01-27T01:33:59.286Z,5.20
2018-01-27T01:35:01.840Z,5.20
2018-01-27T01:36:04.364Z,5.20
2018-01-27T01:37:06.889Z,5.20
2018-01-27T01:38:09.502Z,5.20
2018-01-27T01:39:12.020Z,5.20
2018-01-27T01:40:14.587Z,5.10
2018-01-27T01:41:17.102Z,5.10
2018-01-27T01:42:25.229Z,5.10
2018-01-27T01:43:33.504Z,5.10
2018-01-27T01:44:36.016Z,5.20
2018-01-27T01:45:38.578Z,5.20
2018-01-27T01:46:41.101Z,5.10
2018-01-27T01:47:43.620Z,5.10
2018-01-27T01:48:46.142Z,5.00
2018-01-27T01:49:48.660Z,5.10
2018-01-27T01:50:51.988Z,5.10
2018-01-27T01:51:54.500Z,5.10
2018-01-27T01:52:57.024Z,5.20
2018-01-27T01:53:59.548Z,5.10
2018-01-27T01:55:02.826Z,5.10
2018-01-27T01:56:06.142Z,5.20
2018-01-27T01:57:08.660Z,5.10
2018-01-27T01:58:11.216Z,5.20
2018-01-27T01:59:13.734Z,5.20
2018-01-27T02:00:16.259Z,5.20
2018-01-27T02:01:19.586Z,5.20
2018-01-27T02:02:22.136Z,5.20
2018-01-27T02:03:25.422Z,5.20
2018-01-27T02:04:27.968Z,5.20
2018-01-27T02:05:30.485Z,5.20
2018-01-27T02:06:33.007Z,5.20
2018-01-27T02:07:36.332Z,5.10
2018-01-27T02:08:38.844Z,5.10
2018-01-27T02:09:41.361Z,5.10
2018-01-27T02:10:43.908Z,5.10
2018-01-27T02:11:46.431Z,5.00
2018-01-27T02:12:48.984Z,5.00
2018-01-27T02:13:51.505Z,5.00
2018-01-27T02:14:54.027Z,5.10
2018-01-27T02:15:56.573Z,5.00
2018-01-27T02:16:59.088Z,5.00
2018-01-27T02:18:02.377Z,4.80
2018-01-27T02:19:05.658Z,4.80
2018-01-27T02:20:09.070Z,4.70
2018-01-27T02:21:11.588Z,4.70
2018-01-27T02:22:14.102Z,4.70
2018-01-27T02:23:16.624Z,4.70
2018-01-27T02:24:19.144Z,4.70
2018-01-27T02:25:21.701Z,4.70
2018-01-27T02:26:24.252Z,4.80
2018-01-27T02:27:27.685Z,4.90
2018-01-27T02:28:30.200Z,4.90
2018-01-27T02:29:33.490Z,5.00
2018-01-27T02:30:36.042Z,5.00
2018-01-27T02:31:39.332Z,5.10
2018-01-27T02:32:42.652Z,5.10
2018-01-27T02:33:45.198Z,5.00
2018-01-27T02:34:47.724Z,5.00
2018-01-27T02:35:50.240Z,5.00
2018-01-27T02:36:52.789Z,5.10
2018-01-27T02:37:55.320Z,5.10
2018-01-27T02:38:57.841Z,5.10
2018-01-27T02:40:00.361Z,5.20
2018-01-27T02:41:02.878Z,5.10
2018-01-27T02:42:05.437Z,5.00
2018-01-27T02:43:07.984Z,4.90
2018-01-27T02:44:10.563Z,4.90
2018-01-27T02:45:13.077Z,4.80
2018-01-27T02:46:15.630Z,4.80
2018-01-27T02:47:18.144Z,4.80
2018-01-27T02:48:21.428Z,4.80
2018-01-27T02:49:23.988Z,4.80
2018-01-27T02:50:27.277Z,4.90
2018-01-27T02:51:30.670Z,4.90
2018-01-27T02:52:33.205Z,4.90
2018-01-27T02:53:35.733Z,4.90
2018-01-27T02:54:38.306Z,5.00
2018-01-27T02:55:40.827Z,5.00
2018-01-27T02:56:44.113Z,5.00
2018-01-27T02:57:47.401Z,5.00
2018-01-27T02:58:49.966Z,5.00
2018-01-27T02:59:53.248Z,5.10
2018-01-27T03:00:56.529Z,5.10
2018-01-27T03:01:59.808Z,5.10
2018-01-27T03:03:03.100Z,5.10
2018-01-27T03:04:05.661Z,5.10
2018-01-27T03:05:08.945Z,5.20
2018-01-27T03:06:12.233Z,5.30
2018-01-27T03:07:14.753Z,5.30
2018-01-27T03:08:17.278Z,5.20
2018-01-27T03:09:19.836Z,5.20
2018-01-27T03:10:22.371Z,5.10
2018-01-27T03:11:24.897Z,5.10
2018-01-27T03:12:27.416Z,5.10
2018-01-27T03:13:29.966Z,5.10
2018-01-27T03:14:32.537Z,5.10
2018-01-27T03:15:35.056Z,5.10
2018-01-27T03:16:37.595Z,5.20
2018-01-27T03:17:40.880Z,5.20
2018-01-27T03:18:43.399Z,5.20
2018-01-27T03:19:45.954Z,5.20
2018-01-27T03:20:48.469Z,5.20
2018-01-27T03:21:51.748Z,5.20
2018-01-27T03:22:55.032Z,5.10
2018-01-27T03:23:58.360Z,5.00
2018-01-27T03:25:00.876Z,5.00
2018-01-27T03:26:04.157Z,4.80
2018-01-27T03:27:07.488Z,4.80
2018-01-27T03:28:10.006Z,4.80
2018-01-27T03:29:12.519Z,4.80
2018-01-27T03:30:15.045Z,4.80
2018-01-27T03:31:18.341Z,4.70
2018-01-27T03:32:21.663Z,4.70
2018-01-27T03:33:24.184Z,4.70
2018-01-27T03:34:27.465Z,4.80
2018-01-27T03:35:30.765Z,4.80
2018-01-27T03:36:33.346Z,4.80
2018-01-27T03:37:35.856Z,4.90
2018-01-27T03:38:38.373Z,5.00
2018-01-27T03:39:40.940Z,5.00
2018-01-27T03:40:43.456Z,5.00
2018-01-27T03:41:46.001Z,4.80
2018-01-27T03:42:48.512Z,4.80
2018-01-27T03:43:51.801Z,4.70
2018-01-27T03:44:55.134Z,4.70
2018-01-27T03:45:57.652Z,4.70
2018-01-27T03:47:00.945Z,4.70
2018-01-27T03:48:03.488Z,4.70
2018-01-27T03:49:06.778Z,4.70
2018-01-27T03:50:10.099Z,4.60
2018-01-27T03:51:12.625Z,4.60
2018-01-27T03:52:15.912Z,4.50
2018-01-27T03:53:19.188Z,4.50
2018-01-27T03:54:21.696Z,4.50
2018-01-27T03:55:24.265Z,4.50
2018-01-27T03:56:26.781Z,4.50
2018-01-27T03:57:29.300Z,4.50
2018-01-27T03:58:31.844Z,4.50
2018-01-27T03:59:35.134Z,4.60
2018-01-27T04:00:37.689Z,4.50
2018-01-27T04:01:40.210Z,4.50
2018-01-27T04:02:42.723Z,4.40
2018-01-27T04:03:45.241Z,4.40
2018-01-27T04:04:47.762Z,4.40
2018-01-27T04:05:50.320Z,4.40
2018-01-27T04:06:52.876Z,4.30
2018-01-27T04:07:56.161Z,4.20
2018-01-27T04:08:59.447Z,4.20
2018-01-27T04:10:02.734Z,4.20
2018-01-27T04:11:05.258Z,4.20
2018-01-27T04:12:07.813Z,4.10
2018-01-27T04:13:10.332Z,4.10
2018-01-27T04:14:12.857Z,4.10
2018-01-27T04:15:15.480Z,4.10
2018-01-27T04:16:18.026Z,4.10
2018-01-27T04:17:21.351Z,4.00
2018-01-27T04:18:23.866Z,4.00
2018-01-27T04:19:27.153Z,4.00
2018-01-27T04:20:30.435Z,4.00
2018-01-27T04:21:33.729Z,3.90
2018-01-27T04:22:37.052Z,3.90
2018-01-27T04:23:39.575Z,3.90
2018-01-27T04:24:42.860Z,3.90
2018-01-27T04:25:46.149Z,3.90
2018-01-27T04:26:49.472Z,3.90
2018-01-27T04:27:52.005Z,3.90
2018-01-27T04:28:54.582Z,3.90
2018-01-27T04:29:57.102Z,3.90
2018-01-27T04:30:59.620Z,4.00
2018-01-27T04:32:02.177Z,4.00
2018-01-27T04:33:04.693Z,4.00
2018-01-27T04:34:07.237Z,3.90
2018-01-27T04:35:09.762Z,3.90
2018-01-27T04:36:13.043Z,3.90
2018-01-27T04:37:16.374Z,3.90
2018-01-27T04:38:18.890Z,3.90
2018-01-27T04:39:22.188Z,3.90
2018-01-27T04:40:24.736Z,3.90
2018-01-27T04:41:28.025Z,4.00
2018-01-27T04:42:31.312Z,3.90
2018-01-27T04:43:35.023Z,4.00
2018-01-27T04:44:37.572Z,3.90
2018-01-27T04:45:40.975Z,4.00
2018-01-27T04:46:43.489Z,3.90
2018-01-27T04:47:46.014Z,4.00
2018-01-27T04:48:48.534Z,4.00
2018-01-27T04:49:51.092Z,4.10
2018-01-27T04:50:53.604Z,4.10
2018-01-27T04:51:56.130Z,4.10
2018-01-27T04:52:58.648Z,4.20
2018-01-27T04:54:01.160Z,4.20
2018-01-27T04:55:03.769Z,4.20
2018-01-27T04:56:06.284Z,4.20
2018-01-27T04:57:08.806Z,4.20
2018-01-27T04:58:11.329Z,4.10
2018-01-27T04:59:14.646Z,4.10
2018-01-27T05:00:17.194Z,4.10
2018-01-27T05:01:20.479Z,4.10
2018-01-27T05:02:23.764Z,4.10
2018-01-27T05:03:27.068Z,4.20
2018-01-27T05:04:29.585Z,4.20
2018-01-27T05:05:32.140Z,4.10
2018-01-27T05:06:34.655Z,4.20
2018-01-27T05:07:37.309Z,4.10
2018-01-27T05:08:40.593Z,4.10
2018-01-27T05:09:43.882Z,4.10
2018-01-27T05:10:47.199Z,4.10
2018-01-27T05:11:49.749Z,4.10
2018-01-27T05:12:52.264Z,4.10
2018-01-27T05:13:54.790Z,4.20
2018-01-27T05:14:57.313Z,4.20
2018-01-27T05:15:59.893Z,4.20
2018-01-27T05:17:03.189Z,4.30
2018-01-27T05:18:05.708Z,4.30
2018-01-27T05:19:08.236Z,4.30
2018-01-27T05:20:10.751Z,4.30
2018-01-27T05:21:13.321Z,4.40
2018-01-27T05:22:15.844Z,4.40
2018-01-27T05:23:18.358Z,4.40
2018-01-27T05:24:20.879Z,4.50
2018-01-27T05:25:23.396Z,4.50
2018-01-27T05:26:26.712Z,4.40
2018-01-27T05:27:29.237Z,4.40
2018-01-27T05:28:31.758Z,4.40
2018-01-27T05:29:34.276Z,4.30
2018-01-27T05:30:36.788Z,4.20
2018-01-27T05:31:39.332Z,4.20
2018-01-27T05:32:41.853Z,4.20
2018-01-27T05:33:44.373Z,4.20
2018-01-27T05:34:46.939Z,4.20
2018-01-27T05:35:49.461Z,4.20
2018-01-27T05:36:52.021Z,4.20
2018-01-27T05:37:54.580Z,4.20
2018-01-27T05:38:57.207Z,4.10
2018-01-27T05:39:59.730Z,4.10
2018-01-27T05:41:02.253Z,4.10
2018-01-27T05:42:04.773Z,4.00
2018-01-27T05:43:08.092Z,3.80
2018-01-27T05:44:10.614Z,3.80
2018-01-27T05:45:13.134Z,3.80
2018-01-27T05:46:15.657Z,3.80
2018-01-27T05:47:19.074Z,3.70
2018-01-27T05:48:21.587Z,3.70
2018-01-27T05:49:24.109Z,3.70
2018-01-27T05:50:26.645Z,3.60
2018-01-27T05:51:29.939Z,3.60
2018-01-27T05:52:32.496Z,3.70
2018-01-27T05:53:35.813Z,3.60
2018-01-27T05:54:38.337Z,3.60
2018-01-27T05:55:41.621Z,3.50
2018-01-27T05:56:44.138Z,3.50
2018-01-27T05:57:46.649Z,3.60
2018-01-27T05:58:49.205Z,3.50
2018-01-27T05:59:51.737Z,3.50
2018-01-27T06:00:54.264Z,3.50
2018-01-27T06:01:56.827Z,3.40
2018-01-27T06:03:00.126Z,3.30
2018-01-27T06:04:02.647Z,3.30
2018-01-27T06:05:05.268Z,3.30
2018-01-27T06:06:07.792Z,3.30
2018-01-27T06:07:10.436Z,3.30
2018-01-27T06:08:12.948Z,3.30
2018-01-27T06:09:16.245Z,3.40
2018-01-27T06:10:18.760Z,3.40
2018-01-27T06:11:21.284Z,3.40
2018-01-27T06:12:23.841Z,3.50
2018-01-27T06:13:26.360Z,3.50
2018-01-27T06:14:28.886Z,3.50
2018-01-27T06:15:31.396Z,3.50
2018-01-27T06:16:33.912Z,3.50
2018-01-27T06:17:36.469Z,3.40
2018-01-27T06:18:39.049Z,3.30
2018-01-27T06:19:41.560Z,3.40
2018-01-27T06:20:44.077Z,3.30
2018-01-27T06:21:46.593Z,3.30
2018-01-27T06:22:49.172Z,3.20
2018-01-27T06:23:52.468Z,3.20
2018-01-27T06:24:55.757Z,3.20
2018-01-27T06:25:59.040Z,3.20
2018-01-27T06:27:02.324Z,3.20
2018-01-27T06:28:05.649Z,3.30
2018-01-27T06:29:08.171Z,3.30
2018-01-27T06:30:11.478Z,3.30
2018-01-27T06:31:14.025Z,3.30
2018-01-27T06:32:17.326Z,3.40
2018-01-27T06:33:19.881Z,3.40
2018-01-27T06:34:23.160Z,3.40
2018-01-27T06:35:26.444Z,3.50
2018-01-27T06:36:29.763Z,3.50
2018-01-27T06:37:32.290Z,3.50
2018-01-27T06:38:35.572Z,3.40
2018-01-27T06:39:38.860Z,3.40
2018-01-27T06:40:42.181Z,3.40
2018-01-27T06:41:44.738Z,3.40
2018-01-27T06:42:47.261Z,3.30
2018-01-27T06:43:49.893Z,3.20
2018-01-27T06:44:52.433Z,3.20
2018-01-27T06:45:54.964Z,3.20
2018-01-27T06:46:58.280Z,3.00
2018-01-27T06:48:00.836Z,3.00
2018-01-27T06:49:03.356Z,3.00
2018-01-27T06:50:05.878Z,3.00
2018-01-27T06:51:08.446Z,3.10
2018-01-27T06:52:10.964Z,3.00
2018-01-27T06:53:13.477Z,3.00
2018-01-27T06:54:16.045Z,3.00
2018-01-27T06:55:18.561Z,3.00
2018-01-27T06:56:21.125Z,3.00
2018-01-27T06:57:23.646Z,2.90
2018-01-27T06:58:26.419Z,3.10
2018-01-27T06:59:28.950Z,3.20
2018-01-27T07:00:32.240Z,3.30
2018-01-27T07:01:35.562Z,3.10
2018-01-27T07:02:38.085Z,3.20
2018-01-27T07:03:41.410Z,2.90
2018-01-27T07:04:44.028Z,2.90
2018-01-27T07:05:46.699Z,2.90
2018-01-27T07:06:49.259Z,2.90
2018-01-27T07:07:51.778Z,2.90
2018-01-27T07:08:54.502Z,2.90
2018-01-27T07:09:57.792Z,3.10
2018-01-27T07:11:01.081Z,3.10
2018-01-27T07:12:04.403Z,3.10
2018-01-27T07:13:06.917Z,3.10
2018-01-27T07:14:09.439Z,3.20
2018-01-27T07:15:11.960Z,3.00
2018-01-27T07:16:15.256Z,3.10
2018-01-27T07:17:19.335Z,3.10
2018-01-27T07:18:22.625Z,3.00
2018-01-27T07:19:25.904Z,3.00
2018-01-27T07:20:28.423Z,3.10
2018-01-27T07:21:30.949Z,3.00
2018-01-27T07:22:34.281Z,3.00
2018-01-27T07:23:36.799Z,2.90
2018-01-27T07:24:40.085Z,3.10
2018-01-27T07:25:43.500Z,3.00
2018-01-27T07:26:46.022Z,3.00
2018-01-27T07:27:48.574Z,2.90
2018-01-27T07:28:51.089Z,3.00
2018-01-27T07:29:53.638Z,2.90
2018-01-27T07:30:56.925Z,2.90
2018-01-27T07:32:00.222Z,3.00
2018-01-27T07:33:02.782Z,3.00
2018-01-27T07:34:05.309Z,3.10
2018-01-27T07:35:07.871Z,3.00
2018-01-27T07:36:10.384Z,3.10
2018-01-27T07:37:12.900Z,3.20
2018-01-27T07:38:15.435Z,3.30
2018-01-27T07:39:17.949Z,3.30
2018-01-27T07:40:20.522Z,3.30
2018-01-27T07:41:23.800Z,3.40
2018-01-27T07:42:26.316Z,3.40
2018-01-27T07:43:28.837Z,3.40
2018-01-27T07:44:32.124Z,3.20
2018-01-27T07:45:35.452Z,3.10
2018-01-27T07:46:37.978Z,3.10
2018-01-27T07:47:41.261Z,3.30
2018-01-27T07:48:44.545Z,3.30
2018-01-27T07:49:47.830Z,3.30
2018-01-27T07:50:51.170Z,3.40
2018-01-27T07:51:53.685Z,3.40
2018-01-27T07:52:56.978Z,3.50
2018-01-27T07:53:59.498Z,3.40
2018-01-27T07:55:02.029Z,3.50
2018-01-27T07:56:04.592Z,3.50
2018-01-27T07:57:07.114Z,3.60
2018-01-27T07:58:09.633Z,3.70
2018-01-27T07:59:12.196Z,3.60
2018-01-27T08:00:14.721Z,3.60
2018-01-27T08:01:18.001Z,3.50
2018-01-27T08:02:21.281Z,3.50
2018-01-27T08:03:23.807Z,3.50
2018-01-27T08:04:26.372Z,3.50
2018-01-27T08:05:29.652Z,3.50
2018-01-27T08:06:32.169Z,3.50
2018-01-27T08:07:35.458Z,3.50
2018-01-27T08:08:38.742Z,3.50
2018-01-27T08:09:42.058Z,3.60
2018-01-27T08:10:44.576Z,3.60
2018-01-27T08:11:47.111Z,3.70
2018-01-27T08:12:49.696Z,3.70
2018-01-27T08:13:52.217Z,3.80
2018-01-27T08:14:54.733Z,3.90
2018-01-27T08:15:57.245Z,3.90
2018-01-27T08:16:59.761Z,3.90
2018-01-27T08:18:02.316Z,3.90
2018-01-27T08:19:04.876Z,3.90
2018-01-27T08:20:07.388Z,3.90
2018-01-27T08:21:10.684Z,3.80
2018-01-27T08:22:13.233Z,3.80
2018-01-27T08:23:16.512Z,3.90
2018-01-27T08:24:19.796Z,3.90
2018-01-27T08:25:23.082Z,4.00
2018-01-27T08:26:26.407Z,4.00
2018-01-27T08:27:28.957Z,4.00
2018-01-27T08:28:31.473Z,4.00
2018-01-27T08:29:33.990Z,4.00
2018-01-27T08:30:36.513Z,4.00
2018-01-27T08:31:39.037Z,4.00
2018-01-27T08:32:41.589Z,3.90
2018-01-27T08:33:44.114Z,3.80
2018-01-27T08:34:47.413Z,3.60
2018-01-27T08:35:50.707Z,3.60
2018-01-27T08:36:53.998Z,3.70
2018-01-27T08:37:56.548Z,3.60
2018-01-27T08:38:59.864Z,3.60
2018-01-27T08:40:02.394Z,3.60
2018-01-27T08:41:05.676Z,3.70
2018-01-27T08:42:09.001Z,3.70
2018-01-27T08:43:11.529Z,3.70
2018-01-27T08:44:14.844Z,3.80
2018-01-27T08:45:17.365Z,3.70
2018-01-27T08:46:19.893Z,3.70
2018-01-27T08:47:22.424Z,3.80
2018-01-27T08:48:25.745Z,3.80
2018-01-27T08:49:28.263Z,3.80
2018-01-27T08:50:31.549Z,3.80
2018-01-27T08:51:34.844Z,3.80
2018-01-27T08:52:38.133Z,3.90
2018-01-27T08:53:40.707Z,3.90
2018-01-27T08:54:43.264Z,4.00
2018-01-27T08:55:45.793Z,4.00
2018-01-27T08:56:48.309Z,4.00
2018-01-27T08:57:50.864Z,4.10
2018-01-27T08:58:53.384Z,4.10
2018-01-27T08:59:55.959Z,4.10
2018-01-27T09:00:58.480Z,4.10
2018-01-27T09:02:01.006Z,4.10
2018-01-27T09:03:04.297Z,4.20
2018-01-27T09:04:07.587Z,4.20
2018-01-27T09:05:10.917Z,4.30
2018-01-27T09:06:13.436Z,4.20
2018-01-27T09:07:16.720Z,4.20
2018-01-27T09:08:20.008Z,4.20
2018-01-27T09:09:22.540Z,4.20
2018-01-27T09:10:25.101Z,4.20
2018-01-27T09:11:27.680Z,4.10
2018-01-27T09:12:30.202Z,4.10
2018-01-27T09:13:32.712Z,4.20
2018-01-27T09:14:35.232Z,4.10
2018-01-27T09:15:37.747Z,4.20
2018-01-27T09:16:40.330Z,4.20
2018-01-27T09:17:43.626Z,4.30
2018-01-27T09:18:46.204Z,4.30
2018-01-27T09:19:48.738Z,4.30
2018-01-27T09:20:52.053Z,4.30
2018-01-27T09:21:54.605Z,4.30
2018-01-27T09:22:57.925Z,4.40
2018-01-27T09:24:00.440Z,4.40
2018-01-27T09:25:03.728Z,4.50
2018-01-27T09:26:07.021Z,4.50
2018-01-27T09:27:10.304Z,4.50
2018-01-27T09:28:13.616Z,4.50
2018-01-27T09:29:16.145Z,4.50
2018-01-27T09:30:19.425Z,4.50
2018-01-27T09:31:22.713Z,4.40
2018-01-27T09:32:26.013Z,4.40
2018-01-27T09:33:28.580Z,4.40
2018-01-27T09:34:31.113Z,4.40
2018-01-27T09:35:33.628Z,4.50
2018-01-27T09:36:36.145Z,4.50
2018-01-27T09:37:38.653Z,4.40
2018-01-27T09:38:41.205Z,4.50
2018-01-27T09:39:43.728Z,4.40
2018-01-27T09:40:46.240Z,4.50
2018-01-27T09:41:48.883Z,4.50
2018-01-27T09:42:52.334Z,4.40
2018-01-27T09:43:55.014Z,4.50
2018-01-27T09:44:57.537Z,4.40
2018-01-27T09:46:00.114Z,4.50
2018-01-27T09:47:02.628Z,4.50
2018-01-27T09:48:05.153Z,4.50
2018-01-27T09:49:07.716Z,4.60
2018-01-27T09:50:10.245Z,4.60
2018-01-27T09:51:13.534Z,4.50
2018-01-27T09:52:16.821Z,4.60
2018-01-27T09:53:20.106Z,4.60
2018-01-27T09:54:23.426Z,4.70
2018-01-27T09:55:25.958Z,4.70
2018-01-27T09:56:29.373Z,4.70
2018-01-27T09:57:31.901Z,4.70
2018-01-27T09:58:35.189Z,4.70
2018-01-27T09:59:38.469Z,4.70
2018-01-27T10:00:41.753Z,4.80
2018-01-27T10:01:45.065Z,4.80
2018-01-27T10:02:47.625Z,4.80
2018-01-27T10:03:50.221Z,4.70
2018-01-27T10:04:52.746Z,4.80
2018-01-27T10:05:55.312Z,4.80
2018-01-27T10:06:57.829Z,4.80
2018-01-27T10:08:00.381Z,4.80
2018-01-27T10:09:02.908Z,4.80
2018-01-27T10:10:05.448Z,4.80
2018-01-27T10:11:07.977Z,4.80
2018-01-27T10:12:10.529Z,4.80
2018-01-27T10:13:13.044Z,4.90
2018-01-27T10:14:15.569Z,4.90
2018-01-27T10:15:18.088Z,4.90
2018-01-27T10:16:21.373Z,5.10
2018-01-27T10:17:24.685Z,5.10
2018-01-27T10:18:27.195Z,5.00
2018-01-27T10:19:29.721Z,5.00
2018-01-27T10:20:32.239Z,5.00
2018-01-27T10:21:34.752Z,5.00
2018-01-27T10:22:37.317Z,5.00
2018-01-27T10:23:39.833Z,5.00
2018-01-27T10:24:42.353Z,5.00
2018-01-27T10:25:44.903Z,5.00
2018-01-27T10:26:47.449Z,5.00
2018-01-27T10:27:49.961Z,5.10
2018-01-27T10:28:52.480Z,5.10
2018-01-27T10:29:55.833Z,5.20
2018-01-27T10:30:58.376Z,5.20
2018-01-27T10:32:00.906Z,5.30
2018-01-27T10:33:04.220Z,5.30
2018-01-27T10:34:06.736Z,5.30
2018-01-27T10:35:09.450Z,5.30
2018-01-27T10:36:11.971Z,5.40
2018-01-27T10:37:14.497Z,5.40
2018-01-27T10:38:17.018Z,5.40
2018-01-27T10:39:20.344Z,5.30
2018-01-27T10:40:22.894Z,5.40
2018-01-27T10:41:25.416Z,5.40
2018-01-27T10:42:27.993Z,5.40
2018-01-27T10:43:30.508Z,5.50
2018-01-27T10:44:33.032Z,5.50
2018-01-27T10:45:36.329Z,5.50
2018-01-27T10:46:39.626Z,5.60
2018-01-27T10:47:42.192Z,5.60
2018-01-27T10:48:44.718Z,5.50
2018-01-27T10:49:47.260Z,5.60
2018-01-27T10:50:49.772Z,5.60
2018-01-27T10:51:53.204Z,5.70
2018-01-27T10:52:55.757Z,5.60
2018-01-27T10:53:58.310Z,5.60
2018-01-27T10:55:00.844Z,5.70
2018-01-27T10:56:03.430Z,5.70
2018-01-27T10:57:06.720Z,5.60
2018-01-27T10:58:09.288Z,5.60
2018-01-27T10:59:11.822Z,5.60
2018-01-27T11:00:14.341Z,5.70
2018-01-27T11:01:16.873Z,5.70
2018-01-27T11:02:20.170Z,5.60
2018-01-27T11:03:22.724Z,5.60
2018-01-27T11:04:26.061Z,5.60
2018-01-27T11:05:28.576Z,5.60
2018-01-27T11:06:31.872Z,5.60
2018-01-27T11:07:34.393Z,5.60
2018-01-27T11:08:36.914Z,5.70
2018-01-27T11:09:39.469Z,5.60
2018-01-27T11:10:41.983Z,5.70
2018-01-27T11:11:44.496Z,5.80
2018-01-27T11:12:47.056Z,5.90
2018-01-27T11:13:50.374Z,6.10
2018-01-27T11:14:52.872Z,6.10
2018-01-27T11:15:55.401Z,6.10
2018-01-27T11:16:57.961Z,6.20
2018-01-27T11:18:00.546Z,6.40
2018-01-27T11:19:03.073Z,6.40
2018-01-27T11:20:06.415Z,6.60
2018-01-27T11:21:08.956Z,6.60
2018-01-27T11:22:18.524Z,6.80
2018-01-27T11:23:21.076Z,6.90
2018-01-27T11:24:23.602Z,7.10
2018-01-27T11:25:26.116Z,7.20
2018-01-27T11:26:28.628Z,7.30
2018-01-27T11:27:31.149Z,7.40
2018-01-27T11:28:33.714Z,7.50
2018-01-27T11:29:36.230Z,7.50
2018-01-27T11:31:47.780Z,7.60
2018-01-27T11:32:50.300Z,7.50
2018-01-27T11:33:52.856Z,7.60
2018-01-27T11:34:55.367Z,7.60
2018-01-27T11:35:57.883Z,7.50
2018-01-27T11:37:00.397Z,7.50
2018-01-27T11:38:02.915Z,7.60
2018-01-27T11:39:05.488Z,7.70
2018-01-27T11:40:08.001Z,7.90
2018-01-27T11:41:10.524Z,8.00
2018-01-27T11:42:13.060Z,8.10
2018-01-27T11:43:15.581Z,8.20
2018-01-27T11:44:18.134Z,8.40
2018-01-27T11:45:20.721Z,8.40
2018-01-27T11:46:23.274Z,8.30
2018-01-27T11:47:25.788Z,8.20
2018-01-27T11:48:29.073Z,8.20
2018-01-27T11:49:32.357Z,8.10
2018-01-27T11:50:35.681Z,8.10
2018-01-27T11:51:38.196Z,8.10
2018-01-27T11:52:41.517Z,8.20
2018-01-27T11:53:44.042Z,8.20
2018-01-27T11:54:47.464Z,8.10
2018-01-27T11:55:50.012Z,8.10
2018-01-27T11:56:53.344Z,7.80
2018-01-27T11:57:55.865Z,7.80
2018-01-27T11:58:59.197Z,7.70
2018-01-27T12:00:01.760Z,7.70
2018-01-27T12:01:04.276Z,7.80
2018-01-27T12:02:07.617Z,7.90
2018-01-27T12:03:10.137Z,8.00
2018-01-27T12:04:12.724Z,8.10
2018-01-27T12:05:15.253Z,8.20
2018-01-27T12:06:18.546Z,8.60
2018-01-27T12:07:21.819Z,8.90
2018-01-27T12:08:25.137Z,9.20
2018-01-27T12:09:27.810Z,9.20
2018-01-27T12:10:30.337Z,9.30
2018-01-27T12:11:32.898Z,9.30
2018-01-27T12:12:35.424Z,9.30
2018-01-27T12:13:37.951Z,9.20
2018-01-27T12:14:40.535Z,9.00
2018-01-27T12:15:43.086Z,8.90
2018-01-27T12:16:45.608Z,8.80
2018-01-27T12:17:48.128Z,8.80
2018-01-27T12:18:50.645Z,8.70
2018-01-27T12:19:53.220Z,8.80
2018-01-27T12:20:55.756Z,8.90
2018-01-27T12:21:58.274Z,8.80
2018-01-27T12:23:01.578Z,9.10
2018-01-27T12:24:04.109Z,9.10
2018-01-27T12:25:07.440Z,9.40
2018-01-27T12:26:10.723Z,9.50
2018-01-27T12:27:13.244Z,9.50
2018-01-27T12:28:15.801Z,9.50
2018-01-27T12:29:18.330Z,9.40
2018-01-27T12:30:20.852Z,9.30
2018-01-27T12:31:24.181Z,9.10
2018-01-27T12:32:26.787Z,9.10
2018-01-27T12:33:29.280Z,9.10
2018-01-27T12:34:32.564Z,9.10
2018-01-27T12:35:35.251Z,9.10
2018-01-27T12:36:37.792Z,9.10
2018-01-27T12:37:41.115Z,9.10
2018-01-27T12:38:43.642Z,9.10
2018-01-27T12:39:46.995Z,9.00
2018-01-27T12:40:49.522Z,9.00
2018-01-27T12:41:52.083Z,8.90
2018-01-27T12:42:54.650Z,8.80
2018-01-27T12:43:57.223Z,8.70
2018-01-27T12:44:59.751Z,8.60
2018-01-27T12:46:03.040Z,8.50
2018-01-27T12:47:06.337Z,8.50
2018-01-27T12:49:18.637Z,8.40
2018-01-27T12:50:21.926Z,8.40
2018-01-27T12:51:24.440Z,8.30
2018-01-27T12:52:26.965Z,8.40
2018-01-27T12:53:29.524Z,8.40
2018-01-27T12:54:32.051Z,8.40
2018-01-27T12:55:34.573Z,8.40
2018-01-27T12:56:37.111Z,8.50
2018-01-27T12:57:39.680Z,8.50
2018-01-27T12:58:42.998Z,8.50
2018-01-27T12:59:45.520Z,8.50
2018-01-27T13:00:48.816Z,8.60
2018-01-27T13:01:52.110Z,8.60
2018-01-27T13:02:54.665Z,8.50
2018-01-27T13:03:58.003Z,8.60
2018-01-27T13:05:00.532Z,8.60
2018-01-27T13:06:03.846Z,8.80
2018-01-27T13:07:06.360Z,8.80
2018-01-27T13:08:09.652Z,9.70
2018-01-27T13:09:12.244Z,9.60
2018-01-27T13:10:14.797Z,10.10
2018-01-27T13:11:17.323Z,10.50
2018-01-27T13:12:19.859Z,10.80
2018-01-27T13:13:22.406Z,11.20
2018-01-27T13:14:24.973Z,11.60
2018-01-27T13:15:27.504Z,11.60
2018-01-27T13:16:30.036Z,11.30
2018-01-27T13:17:32.562Z,11.20
2018-01-27T13:18:35.087Z,10.90
2018-01-27T13:19:37.661Z,10.70
2018-01-27T13:20:40.196Z,10.60
2018-01-27T13:21:43.494Z,10.30
2018-01-27T13:22:46.024Z,10.30
2018-01-27T13:23:48.580Z,10.10
2018-01-27T13:24:51.964Z,9.90
2018-01-27T13:25:54.477Z,9.80
2018-01-27T13:26:57.017Z,9.70
2018-01-27T13:27:59.538Z,9.60
2018-01-27T13:29:02.874Z,9.30
2018-01-27T13:30:05.445Z,9.30
2018-01-27T13:31:07.961Z,9.20
2018-01-27T13:32:11.296Z,9.00
2018-01-27T13:33:13.825Z,9.00
2018-01-27T13:34:16.382Z,9.00
2018-01-27T13:35:18.914Z,8.90
2018-01-27T13:36:21.448Z,8.90
2018-01-27T13:37:23.976Z,8.90
2018-01-27T13:38:27.268Z,8.90
2018-01-27T13:39:29.945Z,8.90
2018-01-27T13:40:32.487Z,8.90
2018-01-27T13:41:35.786Z,9.10
2018-01-27T13:42:38.304Z,9.10
2018-01-27T13:43:40.829Z,9.20
2018-01-27T13:44:43.496Z,9.50
2018-01-27T13:45:46.053Z,9.80
2018-01-27T13:46:48.612Z,9.80
2018-01-27T13:47:52.015Z,10.10
2018-01-27T13:48:54.529Z,10.10
2018-01-27T13:49:57.085Z,10.20
2018-01-27T13:50:59.592Z,10.10
2018-01-27T13:52:02.901Z,10.00
2018-01-27T13:53:05.465Z,10.10
2018-01-27T13:54:07.988Z,9.80
2018-01-27T13:55:10.521Z,9.70
2018-01-27T13:56:13.836Z,9.60
2018-01-27T13:57:16.355Z,9.60